Time,TemperatureF,DewpointF,PressureIn,WindDirection,WindDirectionDegrees,WindSpeedMPH,WindSpeedGustMPH,Humidity,HourlyPrecipIn,Conditions,Clouds,dailyrainin,SoftwareType,DateUTC
2013-08-04 00:01:00,73.1,69.3,29.96,SSW,202,-999.0,-999.0,88,0.00,,BKN250,0.00,VWS V14.01,2013-08-04 04:01:00,
2013-08-04 00:02:00,73.1,69.3,29.96,SSW,202,-999.0,-999.0,88,0.00,,BKN250,0.00,VWS V14.01,2013-08-04 04:02:00,
2013-08-04 00:06:00,72.9,69.1,29.96,SSW,202,-999.0,-999.0,88,0.00,,BKN250,0.00,VWS V14.01,2013-08-04 04:06:00,
2013-08-04 00:12:00,72.9,69.1,29.96,SSW,202,-999.0,-999.0,88,0.00,,BKN250,0.00,VWS V14.01,2013-08-04 04:12:00,
2013-08-04 00:17:00,72.9,69.1,29.96,SSW,202,-999.0,-999.0,88,0.00,,BKN250,0.00,VWS V14.01,2013-08-04 04:17:00,
2013-08-04 00:22:00,72.9,69.1,29.96,SSW,202,-999.0,-999.0,88,0.00,,BKN250,0.00,VWS V14.01,2013-08-04 04:22:00,
2013-08-04 00:27:00,72.7,68.9,29.96,SSW,202,-999.0,-999.0,88,0.00,,BKN250,0.00,VWS V14.01,2013-08-04 04:27:00,
2013-08-04 00:31:00,72.7,69.2,29.96,SSW,202,-999.0,-999.0,89,0.00,,BKN250,0.00,VWS V14.01,2013-08-04 04:31:00,
2013-08-04 00:36:00,72.6,69.1,29.96,SSW,202,-999.0,-999.0,89,0.00,,BKN250,0.00,VWS V14.01,2013-08-04 04:36:00,
2013-08-04 00:42:00,72.6,69.1,29.96,SSW,202,-999.0,-999.0,89,0.00,,BKN250,0.00,VWS V14.01,2013-08-04 04:42:00,
2013-08-04 00:46:00,72.4,68.9,29.96,SSW,202,-999.0,-999.0,89,0.00,,BKN250,0.00,VWS V14.01,2013-08-04 04:46:00,
2013-08-04 00:52:00,72.4,68.6,29.96,SSW,202,-999.0,-999.0,88,0.00,,BKN250,0.00,VWS V14.01,2013-08-04 04:52:00,
2013-08-04 00:57:00,72.4,68.6,29.96,SSW,202,-999.0,-999.0,88,0.00,,BKN250,0.00,VWS V14.01,2013-08-04 04:57:00,
2013-08-04 01:02:00,72.2,68.4,29.96,SSW,202,-999.0,-999.0,88,0.00,,CLR,0.00,VWS V14.01,2013-08-04 05:02:00,
2013-08-04 01:07:00,72.2,68.4,29.96,SSW,202,-999.0,-999.0,88,0.00,,CLR,0.00,VWS V14.01,2013-08-04 05:07:00,
2013-08-04 01:12:00,72.0,68.2,29.96,SSW,202,-999.0,-999.0,88,0.00,,CLR,0.00,VWS V14.01,2013-08-04 05:12:00,
2013-08-04 01:17:00,72.0,68.2,29.96,SSW,202,-999.0,-999.0,88,0.00,,CLR,0.00,VWS V14.01,2013-08-04 05:17:00,
2013-08-04 01:22:00,72.0,68.2,29.96,SSW,202,-999.0,-999.0,88,0.00,,CLR,0.00,VWS V14.01,2013-08-04 05:22:00,
2013-08-04 01:27:00,72.0,68.2,29.96,SSW,202,-999.0,-999.0,88,0.00,,CLR,0.00,VWS V14.01,2013-08-04 05:27:00,
2013-08-04 01:32:00,71.7,67.9,29.96,SSW,202,-999.0,-999.0,88,0.00,,CLR,0.00,VWS V14.01,2013-08-04 05:32:00,
2013-08-04 01:37:00,71.7,67.9,29.96,SSW,202,-999.0,-999.0,88,0.00,,CLR,0.00,VWS V14.01,2013-08-04 05:37:00,
2013-08-04 01:42:00,71.7,68.3,29.95,SSW,202,-999.0,-999.0,89,0.00,,CLR,0.00,VWS V14.01,2013-08-04 05:42:00,
2013-08-04 01:47:00,71.7,68.3,29.95,SSW,202,-999.0,-999.0,89,0.00,,CLR,0.00,VWS V14.01,2013-08-04 05:47:00,
2013-08-04 01:52:00,71.7,68.3,29.95,SSW,202,-999.0,-999.0,89,0.00,,CLR,0.00,VWS V14.01,2013-08-04 05:52:00,
2013-08-04 01:57:00,71.5,68.1,29.95,SSW,202,-999.0,-999.0,89,0.00,,CLR,0.00,VWS V14.01,2013-08-04 05:57:00,
2013-08-04 02:02:00,71.5,68.1,29.95,SSW,202,-999.0,-999.0,89,0.00,,CLR,0.00,VWS V14.01,2013-08-04 06:02:00,
2013-08-04 02:07:00,71.3,67.9,29.94,SSW,202,-999.0,-999.0,89,0.00,,CLR,0.00,VWS V14.01,2013-08-04 06:07:00,
2013-08-04 02:12:00,71.3,67.9,29.94,SSW,202,-999.0,-999.0,89,0.00,,CLR,0.00,VWS V14.01,2013-08-04 06:12:00,
2013-08-04 02:17:00,71.1,67.7,29.94,South,180,-999.0,-999.0,89,0.00,,CLR,0.00,VWS V14.01,2013-08-04 06:17:00,
2013-08-04 02:22:00,71.1,68.0,29.94,South,180,-999.0,-999.0,90,0.00,,CLR,0.00,VWS V14.01,2013-08-04 06:22:00,
2013-08-04 02:27:00,70.9,67.8,29.93,South,180,-999.0,-999.0,90,0.00,,CLR,0.00,VWS V14.01,2013-08-04 06:27:00,
2013-08-04 02:32:00,70.9,67.8,29.93,South,180,-999.0,-999.0,90,0.00,,CLR,0.00,VWS V14.01,2013-08-04 06:32:00,
2013-08-04 02:37:00,70.9,67.8,29.93,South,180,-999.0,-999.0,90,0.00,,CLR,0.00,VWS V14.01,2013-08-04 06:37:00,
2013-08-04 02:42:00,70.9,67.8,29.93,South,180,-999.0,-999.0,90,0.00,,CLR,0.00,VWS V14.01,2013-08-04 06:42:00,
2013-08-04 02:46:00,70.9,67.8,29.93,South,180,-999.0,-999.0,90,0.00,,CLR,0.00,VWS V14.01,2013-08-04 06:46:00,
2013-08-04 02:52:00,70.9,67.8,29.93,South,180,-999.0,-999.0,90,0.00,,CLR,0.00,VWS V14.01,2013-08-04 06:52:00,
2013-08-04 02:57:00,70.8,67.7,29.93,South,180,-999.0,-999.0,90,0.00,,CLR,0.00,VWS V14.01,2013-08-04 06:57:00,
2013-08-04 03:02:00,70.8,67.7,29.93,South,180,-999.0,-999.0,90,0.00,,CLR,0.00,VWS V14.01,2013-08-04 07:02:00,
2013-08-04 03:07:00,70.6,67.5,29.93,South,180,-999.0,-999.0,90,0.00,,CLR,0.00,VWS V14.01,2013-08-04 07:07:00,
2013-08-04 03:12:00,70.6,67.5,29.93,South,180,-999.0,-999.0,90,0.00,,CLR,0.00,VWS V14.01,2013-08-04 07:12:00,
2013-08-04 03:17:00,70.6,67.5,29.93,South,180,-999.0,-999.0,90,0.00,,CLR,0.00,VWS V14.01,2013-08-04 07:17:00,
2013-08-04 03:22:00,70.6,67.5,29.93,South,180,-999.0,-999.0,90,0.00,,CLR,0.00,VWS V14.01,2013-08-04 07:22:00,
2013-08-04 03:27:00,70.4,67.3,29.93,South,180,-999.0,-999.0,90,0.00,,CLR,0.00,VWS V14.01,2013-08-04 07:27:00,
2013-08-04 03:32:00,70.4,67.3,29.93,South,180,-999.0,-999.0,90,0.00,,CLR,0.00,VWS V14.01,2013-08-04 07:32:00,
2013-08-04 03:37:00,70.4,67.6,29.93,ESE,112,-999.0,-999.0,91,0.00,,CLR,0.00,VWS V14.01,2013-08-04 07:37:00,
2013-08-04 03:42:00,70.2,67.4,29.93,ESE,112,-999.0,-999.0,91,0.00,,CLR,0.00,VWS V14.01,2013-08-04 07:42:00,
2013-08-04 03:47:00,70.2,67.4,29.93,ESE,112,-999.0,-999.0,91,0.00,,CLR,0.00,VWS V14.01,2013-08-04 07:47:00,
2013-08-04 03:52:00,70.2,67.4,29.93,ESE,112,-999.0,-999.0,91,0.00,,CLR,0.00,VWS V14.01,2013-08-04 07:52:00,
2013-08-04 03:57:00,70.0,67.2,29.93,ESE,112,-999.0,-999.0,91,0.00,,CLR,0.00,VWS V14.01,2013-08-04 07:57:00,
2013-08-04 04:02:00,70.0,67.2,29.93,South,180,-999.0,-999.0,91,0.00,,CLR,0.00,VWS V14.01,2013-08-04 08:02:00,
2013-08-04 04:07:00,70.0,67.2,29.93,South,180,-999.0,-999.0,91,0.00,,CLR,0.00,VWS V14.01,2013-08-04 08:07:00,
2013-08-04 04:12:00,70.0,67.2,29.94,South,180,-999.0,-999.0,91,0.00,,CLR,0.00,VWS V14.01,2013-08-04 08:12:00,
2013-08-04 04:17:00,70.0,67.2,29.93,South,180,-999.0,-999.0,91,0.00,,CLR,0.00,VWS V14.01,2013-08-04 08:17:00,
2013-08-04 04:22:00,70.0,67.2,29.94,South,180,-999.0,-999.0,91,0.00,,CLR,0.00,VWS V14.01,2013-08-04 08:22:00,
2013-08-04 04:27:00,69.9,67.2,29.93,South,180,-999.0,-999.0,91,0.00,,CLR,0.00,VWS V14.01,2013-08-04 08:27:00,
2013-08-04 04:32:00,69.9,67.2,29.93,South,180,-999.0,-999.0,91,0.00,,CLR,0.00,VWS V14.01,2013-08-04 08:32:00,
2013-08-04 04:37:00,69.9,67.2,29.93,South,180,-999.0,-999.0,91,0.00,,CLR,0.00,VWS V14.01,2013-08-04 08:37:00,
2013-08-04 04:42:00,69.9,67.2,29.93,South,180,-999.0,-999.0,91,0.00,,CLR,0.00,VWS V14.01,2013-08-04 08:42:00,
2013-08-04 04:47:00,69.9,67.2,29.93,South,180,-999.0,-999.0,91,0.00,,CLR,0.00,VWS V14.01,2013-08-04 08:47:00,
2013-08-04 04:52:00,69.7,67.0,29.93,South,180,-999.0,-999.0,91,0.00,,CLR,0.00,VWS V14.01,2013-08-04 08:52:00,
2013-08-04 04:57:00,69.7,67.0,29.93,South,180,-999.0,-999.0,91,0.00,,CLR,0.00,VWS V14.01,2013-08-04 08:57:00,
2013-08-04 05:02:00,69.7,67.0,29.93,South,180,-999.0,-999.0,91,0.00,,FEW250,0.00,VWS V14.01,2013-08-04 09:02:00,
2013-08-04 05:07:00,69.7,67.0,29.93,South,180,-999.0,-999.0,91,0.00,,FEW250,0.00,VWS V14.01,2013-08-04 09:07:00,
2013-08-04 05:12:00,69.5,66.8,29.93,South,180,-999.0,-999.0,91,0.00,,FEW250,0.00,VWS V14.01,2013-08-04 09:12:00,
2013-08-04 05:17:00,69.5,66.8,29.93,South,180,-999.0,-999.0,91,0.00,,FEW250,0.00,VWS V14.01,2013-08-04 09:17:00,
2013-08-04 05:22:00,69.5,66.8,29.93,South,180,-999.0,-999.0,91,0.00,,FEW250,0.00,VWS V14.01,2013-08-04 09:22:00,
2013-08-04 05:27:00,69.5,66.8,29.93,South,180,-999.0,-999.0,91,0.00,,FEW250,0.00,VWS V14.01,2013-08-04 09:27:00,
2013-08-04 05:32:00,69.5,66.8,29.93,South,180,-999.0,-999.0,91,0.00,,FEW250,0.00,VWS V14.01,2013-08-04 09:32:00,
2013-08-04 05:37:00,69.5,67.1,29.93,South,180,-999.0,-999.0,92,0.00,,FEW250,0.00,VWS V14.01,2013-08-04 09:37:00,
2013-08-04 05:42:00,69.5,66.8,29.93,South,180,-999.0,-999.0,91,0.00,,FEW250,0.00,VWS V14.01,2013-08-04 09:42:00,
2013-08-04 05:47:00,69.5,66.8,29.93,South,180,-999.0,-999.0,91,0.00,,FEW250,0.00,VWS V14.01,2013-08-04 09:47:00,
2013-08-04 05:52:00,69.3,66.6,29.94,South,180,-999.0,-999.0,91,0.00,,FEW250,0.00,VWS V14.01,2013-08-04 09:52:00,
2013-08-04 05:57:00,69.3,66.9,29.94,NNE,22,-999.0,-999.0,92,0.00,,FEW250,0.00,VWS V14.01,2013-08-04 09:57:00,
2013-08-04 06:02:00,69.3,66.9,29.95,NNE,22,-999.0,-999.0,92,0.00,,SCT250,0.00,VWS V14.01,2013-08-04 10:02:00,
2013-08-04 06:07:00,69.3,66.9,29.95,NE,45,-999.0,-999.0,92,0.00,,SCT250,0.00,VWS V14.01,2013-08-04 10:07:00,
2013-08-04 06:12:00,69.3,66.9,29.94,South,180,-999.0,-999.0,92,0.00,,SCT250,0.00,VWS V14.01,2013-08-04 10:12:00,
2013-08-04 06:17:00,69.3,66.9,29.94,SSW,202,-999.0,-999.0,92,0.00,,SCT250,0.00,VWS V14.01,2013-08-04 10:17:00,
2013-08-04 06:22:00,69.3,66.9,29.95,SE,135,-999.0,-999.0,92,0.00,,SCT250,0.00,VWS V14.01,2013-08-04 10:22:00,
2013-08-04 06:27:00,69.3,66.9,29.95,NNE,22,-999.0,-999.0,92,0.00,,SCT250,0.00,VWS V14.01,2013-08-04 10:27:00,
2013-08-04 06:32:00,69.3,66.9,29.95,NNE,22,-999.0,-999.0,92,0.00,,SCT250,0.00,VWS V14.01,2013-08-04 10:32:00,
2013-08-04 06:37:00,69.3,66.9,29.95,NNE,22,-999.0,-999.0,92,0.00,,SCT250,0.00,VWS V14.01,2013-08-04 10:37:00,
2013-08-04 06:42:00,69.5,67.1,29.96,NNE,22,-999.0,-999.0,92,0.00,,SCT250,0.00,VWS V14.01,2013-08-04 10:42:00,
2013-08-04 06:47:00,69.5,67.1,29.96,NNE,22,-999.0,-999.0,92,0.00,,SCT250,0.00,VWS V14.01,2013-08-04 10:47:00,
2013-08-04 06:52:00,69.5,67.1,29.96,NNE,22,-999.0,-999.0,92,0.00,,SCT250,0.00,VWS V14.01,2013-08-04 10:52:00,
2013-08-04 06:57:00,69.5,67.1,29.96,NE,45,-999.0,-999.0,92,0.00,,SCT250,0.00,VWS V14.01,2013-08-04 10:57:00,
2013-08-04 07:02:00,69.5,67.1,29.97,South,180,-999.0,-999.0,92,0.00,,SCT250,0.00,VWS V14.01,2013-08-04 11:02:00,
2013-08-04 07:07:00,69.7,67.3,29.96,South,180,-999.0,-999.0,92,0.00,,SCT250,0.00,VWS V14.01,2013-08-04 11:07:00,
2013-08-04 07:12:00,69.9,67.5,29.96,South,180,-999.0,-999.0,92,0.00,,SCT250,0.00,VWS V14.01,2013-08-04 11:12:00,
2013-08-04 07:17:00,70.0,67.6,29.96,South,180,-999.0,-999.0,92,0.00,,SCT250,0.00,VWS V14.01,2013-08-04 11:17:00,
2013-08-04 07:22:00,70.2,67.8,29.96,South,180,-999.0,-999.0,92,0.00,,SCT250,0.00,VWS V14.01,2013-08-04 11:22:00,
2013-08-04 07:27:00,70.4,68.0,29.96,South,180,-999.0,-999.0,92,0.00,,SCT250,0.00,VWS V14.01,2013-08-04 11:27:00,
2013-08-04 07:32:00,70.8,68.7,29.96,South,180,-999.0,-999.0,93,0.00,,SCT250,0.00,VWS V14.01,2013-08-04 11:32:00,
2013-08-04 07:37:00,70.9,68.8,29.96,South,180,-999.0,-999.0,93,0.00,,SCT250,0.00,VWS V14.01,2013-08-04 11:37:00,
2013-08-04 07:42:00,71.3,68.8,29.96,South,180,-999.0,-999.0,92,0.00,,SCT250,0.00,VWS V14.01,2013-08-04 11:42:00,
2013-08-04 07:47:00,71.7,69.2,29.96,South,180,-999.0,-999.0,92,0.00,,SCT250,0.00,VWS V14.01,2013-08-04 11:47:00,
2013-08-04 07:52:00,72.0,69.5,29.96,South,180,-999.0,-999.0,92,0.00,,SCT250,0.00,VWS V14.01,2013-08-04 11:52:00,
2013-08-04 07:57:00,72.6,70.1,29.96,South,180,-999.0,-999.0,92,0.00,,SCT250,0.00,VWS V14.01,2013-08-04 11:57:00,
2013-08-04 08:02:00,73.9,71.5,29.96,South,180,-999.0,-999.0,92,0.00,,BKN250,0.00,VWS V14.01,2013-08-04 12:02:00,
2013-08-04 08:07:00,75.2,72.4,29.96,South,180,-999.0,-999.0,91,0.00,,BKN250,0.00,VWS V14.01,2013-08-04 12:07:00,
2013-08-04 08:12:00,75.9,72.5,29.96,ESE,112,-999.0,-999.0,89,0.00,,BKN250,0.00,VWS V14.01,2013-08-04 12:12:00,
2013-08-04 08:17:00,75.7,71.9,29.96,ENE,68,-999.0,-999.0,88,0.00,,BKN250,0.00,VWS V14.01,2013-08-04 12:17:00,
2013-08-04 08:22:00,75.7,71.6,29.96,ENE,68,-999.0,-999.0,87,0.00,,BKN250,0.00,VWS V14.01,2013-08-04 12:22:00,
2013-08-04 08:27:00,75.5,71.4,29.96,ENE,68,-999.0,-999.0,87,0.00,,BKN250,0.00,VWS V14.01,2013-08-04 12:27:00,
2013-08-04 08:32:00,75.5,71.1,29.96,ENE,68,-999.0,-999.0,86,0.00,,BKN250,0.00,VWS V14.01,2013-08-04 12:32:00,
2013-08-04 08:37:00,75.7,70.9,29.97,NE,45,-999.0,-999.0,85,0.00,,BKN250,0.00,VWS V14.01,2013-08-04 12:37:00,
2013-08-04 08:41:00,75.9,70.1,29.97,ESE,112,-999.0,-999.0,82,0.00,,BKN250,0.00,VWS V14.01,2013-08-04 12:41:00,
2013-08-04 08:47:00,76.2,70.3,29.97,NE,45,-999.0,-999.0,82,0.00,,BKN250,0.00,VWS V14.01,2013-08-04 12:47:00,
2013-08-04 08:52:00,76.6,70.7,29.97,SSW,202,-999.0,-999.0,82,0.00,,BKN250,0.00,VWS V14.01,2013-08-04 12:52:00,
2013-08-04 08:57:00,76.8,70.9,29.97,WNW,292,-999.0,-999.0,82,0.00,,BKN250,0.00,VWS V14.01,2013-08-04 12:57:00,
2013-08-04 09:02:00,77.0,70.8,29.97,NNE,22,-999.0,-999.0,81,0.00,,BKN250,0.00,VWS V14.01,2013-08-04 13:02:00,
2013-08-04 09:07:00,77.3,71.0,29.96,ENE,68,-999.0,-999.0,81,0.00,,BKN250,0.00,VWS V14.01,2013-08-04 13:07:00,
2013-08-04 09:12:00,77.5,70.9,29.96,SW,225,-999.0,-999.0,80,0.00,,BKN250,0.00,VWS V14.01,2013-08-04 13:12:00,
2013-08-04 09:17:00,77.7,70.7,29.96,WSW,248,-999.0,-999.0,79,0.00,,BKN250,0.00,VWS V14.01,2013-08-04 13:17:00,
2013-08-04 09:22:00,78.0,71.3,29.96,West,270,-999.0,-999.0,80,0.00,,BKN250,0.00,VWS V14.01,2013-08-04 13:22:00,
2013-08-04 09:26:00,78.2,71.2,29.96,SSW,202,-999.0,-999.0,79,0.00,,BKN250,0.00,VWS V14.01,2013-08-04 13:26:00,
2013-08-04 09:31:00,78.4,71.0,29.96,East,90,-999.0,-999.0,78,0.00,,BKN250,0.00,VWS V14.01,2013-08-04 13:31:00,
2013-08-04 09:36:00,78.8,71.4,29.96,ENE,68,-999.0,-999.0,78,0.00,,BKN250,0.00,VWS V14.01,2013-08-04 13:36:00,
2013-08-04 09:42:00,79.1,71.7,29.96,ENE,68,-999.0,-999.0,78,0.00,,BKN250,0.00,VWS V14.01,2013-08-04 13:42:00,
2013-08-04 09:47:00,79.5,71.7,29.96,SW,225,-999.0,-999.0,77,0.00,,BKN250,0.00,VWS V14.01,2013-08-04 13:47:00,
2013-08-04 09:52:00,79.7,71.1,29.96,South,180,-999.0,-999.0,75,0.00,,BKN250,0.00,VWS V14.01,2013-08-04 13:52:00,
2013-08-04 09:57:00,80.0,71.0,29.96,ENE,68,-999.0,-999.0,74,0.00,,BKN250,0.00,VWS V14.01,2013-08-04 13:57:00,
2013-08-04 10:02:00,80.2,70.8,29.96,North,0,-999.0,-999.0,73,0.00,,SCT250,0.00,VWS V14.01,2013-08-04 14:02:00,
2013-08-04 10:07:00,80.4,70.5,29.96,NNW,338,-999.0,-999.0,72,0.00,,SCT250,0.00,VWS V14.01,2013-08-04 14:07:00,
2013-08-04 10:12:00,80.7,70.4,29.96,South,180,-999.0,-999.0,71,0.00,,SCT250,0.00,VWS V14.01,2013-08-04 14:12:00,
2013-08-04 10:17:00,81.1,70.4,29.96,ESE,112,-999.0,-999.0,70,0.00,,SCT250,0.00,VWS V14.01,2013-08-04 14:17:00,
2013-08-04 10:22:00,81.5,71.6,29.96,NNE,22,-999.0,-999.0,72,0.00,,SCT250,0.00,VWS V14.01,2013-08-04 14:22:00,
2013-08-04 10:27:00,81.8,70.6,29.97,ESE,112,-999.0,-999.0,69,0.00,,SCT250,0.00,VWS V14.01,2013-08-04 14:27:00,
2013-08-04 10:32:00,82.0,70.4,29.97,NNE,22,-999.0,-999.0,68,0.00,,SCT250,0.00,VWS V14.01,2013-08-04 14:32:00,
2013-08-04 10:37:00,82.2,70.6,29.97,NNE,22,-999.0,-999.0,68,0.00,,SCT250,0.00,VWS V14.01,2013-08-04 14:37:00,
2013-08-04 10:42:00,82.4,70.3,29.97,ENE,68,-999.0,-999.0,67,0.00,,SCT250,0.00,VWS V14.01,2013-08-04 14:42:00,
2013-08-04 10:47:00,82.5,70.0,29.97,East,90,-999.0,-999.0,66,0.00,,SCT250,0.00,VWS V14.01,2013-08-04 14:47:00,
2013-08-04 10:52:00,82.7,69.3,29.97,NE,45,-999.0,-999.0,64,0.00,,SCT250,0.00,VWS V14.01,2013-08-04 14:52:00,
2013-08-04 10:57:00,83.1,69.2,29.98,ESE,112,-999.0,-999.0,63,0.00,,SCT250,0.00,VWS V14.01,2013-08-04 14:57:00,
2013-08-04 11:02:00,83.1,69.6,29.98,NE,45,-999.0,-999.0,64,0.00,,SCT250,0.00,VWS V14.01,2013-08-04 15:02:00,
2013-08-04 11:07:00,83.3,69.8,29.97,NNE,22,-999.0,-999.0,64,0.00,,SCT250,0.00,VWS V14.01,2013-08-04 15:07:00,
2013-08-04 11:12:00,83.4,69.4,29.97,WSW,248,-999.0,-999.0,63,0.00,,SCT250,0.00,VWS V14.01,2013-08-04 15:12:00,
2013-08-04 11:17:00,83.4,69.4,29.98,SE,135,-999.0,-999.0,63,0.00,,SCT250,0.00,VWS V14.01,2013-08-04 15:17:00,
2013-08-04 11:22:00,83.4,69.4,29.97,ENE,68,-999.0,-999.0,63,0.00,,SCT250,0.00,VWS V14.01,2013-08-04 15:22:00,
2013-08-04 11:26:00,83.6,69.2,29.98,East,90,-999.0,-999.0,62,0.00,,SCT250,0.00,VWS V14.01,2013-08-04 15:26:00,
2013-08-04 11:32:00,83.8,70.3,29.98,NNW,338,-999.0,-999.0,64,0.00,,SCT250,0.00,VWS V14.01,2013-08-04 15:32:00,
2013-08-04 11:37:00,83.9,69.1,29.98,ENE,68,-999.0,-999.0,61,0.00,,SCT250,0.00,VWS V14.01,2013-08-04 15:37:00,
2013-08-04 11:42:00,83.9,69.1,29.98,ENE,68,-999.0,-999.0,61,0.00,,SCT250,0.00,VWS V14.01,2013-08-04 15:42:00,
2013-08-04 11:47:00,84.2,69.3,29.98,East,90,-999.0,-999.0,61,0.00,,SCT250,0.00,VWS V14.01,2013-08-04 15:47:00,
2013-08-04 11:52:00,84.2,69.3,29.98,East,90,-999.0,-999.0,61,0.00,,SCT250,0.00,VWS V14.01,2013-08-04 15:52:00,
2013-08-04 11:57:00,84.7,68.8,29.98,NNW,338,-999.0,-999.0,59,0.00,,SCT250,0.00,VWS V14.01,2013-08-04 15:57:00,
2013-08-04 12:02:00,84.7,69.2,29.98,SW,225,-999.0,-999.0,60,0.00,,BKN250,0.00,VWS V14.01,2013-08-04 16:02:00,
2013-08-04 12:07:00,84.7,69.7,29.99,East,90,-999.0,-999.0,61,0.00,,BKN250,0.00,VWS V14.01,2013-08-04 16:07:00,
2013-08-04 12:12:00,84.4,69.5,29.98,SE,135,-999.0,-999.0,61,0.00,,BKN250,0.00,VWS V14.01,2013-08-04 16:12:00,
2013-08-04 12:17:00,84.4,69.1,29.98,NNW,338,-999.0,-999.0,60,0.00,,BKN250,0.00,VWS V14.01,2013-08-04 16:17:00,
2013-08-04 12:22:00,84.7,69.7,29.98,West,270,-999.0,-999.0,61,0.00,,BKN250,0.00,VWS V14.01,2013-08-04 16:22:00,
2013-08-04 12:27:00,84.8,69.9,29.98,East,90,-999.0,-999.0,61,0.00,,BKN250,0.00,VWS V14.01,2013-08-04 16:27:00,
2013-08-04 12:32:00,85.0,69.1,29.98,North,0,-999.0,-999.0,59,0.00,,BKN250,0.00,VWS V14.01,2013-08-04 16:32:00,
2013-08-04 12:37:00,84.8,68.9,29.98,ENE,68,-999.0,-999.0,59,0.00,,BKN250,0.00,VWS V14.01,2013-08-04 16:37:00,
2013-08-04 12:42:00,84.8,68.9,29.98,SE,135,-999.0,-999.0,59,0.00,,BKN250,0.00,VWS V14.01,2013-08-04 16:42:00,
2013-08-04 12:47:00,85.1,69.2,29.98,NNE,22,-999.0,-999.0,59,0.00,,BKN250,0.00,VWS V14.01,2013-08-04 16:47:00,
2013-08-04 12:52:00,85.0,69.1,29.99,NE,45,-999.0,-999.0,59,0.00,,BKN250,0.00,VWS V14.01,2013-08-04 16:52:00,
2013-08-04 12:57:00,84.7,69.2,29.99,East,90,-999.0,-999.0,60,0.00,,BKN250,0.00,VWS V14.01,2013-08-04 16:57:00,
2013-08-04 13:02:00,84.8,68.9,29.98,ENE,68,-999.0,-999.0,59,0.00,,BKN250,0.00,VWS V14.01,2013-08-04 17:02:00,
2013-08-04 13:07:00,84.8,68.9,29.98,ENE,68,-999.0,-999.0,59,0.00,,BKN250,0.00,VWS V14.01,2013-08-04 17:07:00,
2013-08-04 13:12:00,85.0,69.1,29.98,ENE,68,-999.0,-999.0,59,0.00,,BKN250,0.00,VWS V14.01,2013-08-04 17:12:00,
2013-08-04 13:17:00,85.0,69.1,29.98,North,0,-999.0,-999.0,59,0.00,,BKN250,0.00,VWS V14.01,2013-08-04 17:17:00,
2013-08-04 13:22:00,85.1,69.7,29.97,NNE,22,-999.0,-999.0,60,0.00,,BKN250,0.00,VWS V14.01,2013-08-04 17:22:00,
2013-08-04 13:27:00,85.1,69.2,29.98,East,90,-999.0,-999.0,59,0.00,,BKN250,0.00,VWS V14.01,2013-08-04 17:27:00,
2013-08-04 13:31:00,85.3,68.9,29.98,NE,45,-999.0,-999.0,58,0.00,,BKN250,0.00,VWS V14.01,2013-08-04 17:31:00,
2013-08-04 13:37:00,85.5,68.6,29.98,ESE,112,-999.0,-999.0,57,0.00,,BKN250,0.00,VWS V14.01,2013-08-04 17:37:00,
2013-08-04 13:42:00,85.1,67.7,29.98,NE,45,-999.0,-999.0,56,0.00,,BKN250,0.00,VWS V14.01,2013-08-04 17:42:00,
2013-08-04 13:47:00,84.7,68.2,29.98,ENE,68,-999.0,-999.0,58,0.00,,BKN250,0.00,VWS V14.01,2013-08-04 17:47:00,
2013-08-04 13:52:00,84.2,68.3,29.98,NE,45,-999.0,-999.0,59,0.00,,BKN250,0.00,VWS V14.01,2013-08-04 17:52:00,
2013-08-04 13:57:00,84.7,69.2,29.98,ENE,68,-999.0,-999.0,60,0.00,,BKN250,0.00,VWS V14.01,2013-08-04 17:57:00,
2013-08-04 14:02:00,84.8,69.4,29.98,North,0,-999.0,-999.0,60,0.00,,BKN250,0.00,VWS V14.01,2013-08-04 18:02:00,
2013-08-04 14:07:00,84.8,68.9,29.98,North,0,-999.0,-999.0,59,0.00,,BKN250,0.00,VWS V14.01,2013-08-04 18:07:00,
2013-08-04 14:12:00,84.4,68.6,29.98,North,0,-999.0,-999.0,59,0.00,,BKN250,0.00,VWS V14.01,2013-08-04 18:12:00,
2013-08-04 14:17:00,84.7,68.2,29.97,ENE,68,-999.0,-999.0,58,0.00,,BKN250,0.00,VWS V14.01,2013-08-04 18:17:00,
2013-08-04 14:22:00,84.8,68.9,29.97,NE,45,-999.0,-999.0,59,0.00,,BKN250,0.00,VWS V14.01,2013-08-04 18:22:00,
2013-08-04 14:27:00,85.0,68.1,29.97,SE,135,-999.0,-999.0,57,0.00,,BKN250,0.00,VWS V14.01,2013-08-04 18:27:00,
2013-08-04 14:32:00,84.8,67.9,29.97,East,90,-999.0,-999.0,57,0.00,,BKN250,0.00,VWS V14.01,2013-08-04 18:32:00,
2013-08-04 14:37:00,84.4,68.1,29.97,NNE,22,-999.0,-999.0,58,0.00,,BKN250,0.00,VWS V14.01,2013-08-04 18:37:00,
2013-08-04 14:42:00,84.4,68.1,29.97,North,0,-999.0,-999.0,58,0.00,,BKN250,0.00,VWS V14.01,2013-08-04 18:42:00,
2013-08-04 14:47:00,84.4,69.1,29.97,ESE,112,-999.0,-999.0,60,0.00,,BKN250,0.00,VWS V14.01,2013-08-04 18:47:00,
2013-08-04 14:52:00,84.4,68.6,29.97,NE,45,-999.0,-999.0,59,0.00,,BKN250,0.00,VWS V14.01,2013-08-04 18:52:00,
2013-08-04 14:57:00,84.4,68.1,29.97,NE,45,-999.0,-999.0,58,0.00,,BKN250,0.00,VWS V14.01,2013-08-04 18:57:00,
2013-08-04 15:02:00,84.4,67.6,29.97,East,90,-999.0,-999.0,57,0.00,,BKN250,0.00,VWS V14.01,2013-08-04 19:02:00,
2013-08-04 15:07:00,84.4,67.6,29.97,NE,45,-999.0,-999.0,57,0.00,,BKN250,0.00,VWS V14.01,2013-08-04 19:07:00,
2013-08-04 15:12:00,84.4,67.6,29.96,SE,135,-999.0,-999.0,57,0.00,,BKN250,0.00,VWS V14.01,2013-08-04 19:12:00,
2013-08-04 15:17:00,85.1,68.2,29.97,ENE,68,-999.0,-999.0,57,0.00,,BKN250,0.00,VWS V14.01,2013-08-04 19:17:00,
2013-08-04 15:22:00,85.0,67.6,29.97,NNE,22,-999.0,-999.0,56,0.00,,BKN250,0.00,VWS V14.01,2013-08-04 19:22:00,
2013-08-04 15:27:00,85.0,68.1,29.97,North,0,-999.0,-999.0,57,0.00,,BKN250,0.00,VWS V14.01,2013-08-04 19:27:00,
2013-08-04 15:32:00,84.4,67.1,29.96,NE,45,-999.0,-999.0,56,0.00,,BKN250,0.00,VWS V14.01,2013-08-04 19:32:00,
2013-08-04 15:37:00,84.7,67.7,29.97,East,90,-999.0,-999.0,57,0.00,,BKN250,0.00,VWS V14.01,2013-08-04 19:37:00,
2013-08-04 15:42:00,85.0,68.1,29.96,NE,45,-999.0,-999.0,57,0.00,,BKN250,0.00,VWS V14.01,2013-08-04 19:42:00,
2013-08-04 15:47:00,85.3,67.9,29.97,ENE,68,-999.0,-999.0,56,0.00,,BKN250,0.00,VWS V14.01,2013-08-04 19:47:00,
2013-08-04 15:52:00,85.1,67.2,29.96,SE,135,-999.0,-999.0,55,0.00,,BKN250,0.00,VWS V14.01,2013-08-04 19:52:00,
2013-08-04 15:57:00,84.4,67.6,29.97,NE,45,-999.0,-999.0,57,0.00,,BKN250,0.00,VWS V14.01,2013-08-04 19:57:00,
2013-08-04 16:02:00,83.9,68.1,29.96,NNE,22,-999.0,-999.0,59,0.00,,BKN250,0.00,VWS V14.01,2013-08-04 20:02:00,
2013-08-04 16:07:00,84.2,68.4,29.96,NE,45,-999.0,-999.0,59,0.00,,BKN250,0.00,VWS V14.01,2013-08-04 20:07:00,
2013-08-04 16:12:00,84.8,67.4,29.96,NE,45,-999.0,-999.0,56,0.00,,BKN250,0.00,VWS V14.01,2013-08-04 20:12:00,
2013-08-04 16:17:00,85.1,66.6,29.96,ESE,112,-999.0,-999.0,54,0.00,,BKN250,0.00,VWS V14.01,2013-08-04 20:17:00,
2013-08-04 16:22:00,85.5,66.5,29.96,ENE,68,-999.0,-999.0,53,0.00,,BKN250,0.00,VWS V14.01,2013-08-04 20:22:00,
2013-08-04 16:27:00,85.7,67.2,29.96,NE,45,-999.0,-999.0,54,0.00,,BKN250,0.00,VWS V14.01,2013-08-04 20:27:00,
2013-08-04 16:32:00,86.0,66.9,29.96,ENE,68,-999.0,-999.0,53,0.00,,BKN250,0.00,VWS V14.01,2013-08-04 20:32:00,
2013-08-04 16:36:00,86.0,66.4,29.96,NNE,22,-999.0,-999.0,52,0.00,,BKN250,0.00,VWS V14.01,2013-08-04 20:36:00,
2013-08-04 16:42:00,86.0,65.8,29.96,East,90,-999.0,-999.0,51,0.00,,BKN250,0.00,VWS V14.01,2013-08-04 20:42:00,
2013-08-04 16:47:00,85.7,66.1,29.96,ENE,68,-999.0,-999.0,52,0.00,,BKN250,0.00,VWS V14.01,2013-08-04 20:47:00,
2013-08-04 16:52:00,85.5,66.5,29.96,NNW,338,-999.0,-999.0,53,0.00,,BKN250,0.00,VWS V14.01,2013-08-04 20:52:00,
2013-08-04 16:57:00,85.7,67.2,29.96,ESE,112,-999.0,-999.0,54,0.00,,BKN250,0.00,VWS V14.01,2013-08-04 20:57:00,
2013-08-04 17:02:00,85.7,67.2,29.96,NNE,22,-999.0,-999.0,54,0.00,,BKN250,0.00,VWS V14.01,2013-08-04 21:02:00,
2013-08-04 17:07:00,85.5,67.0,29.96,ESE,112,-999.0,-999.0,54,0.00,,BKN250,0.00,VWS V14.01,2013-08-04 21:07:00,
2013-08-04 17:12:00,85.1,66.6,29.96,ESE,112,-999.0,-999.0,54,0.00,,BKN250,0.00,VWS V14.01,2013-08-04 21:12:00,
2013-08-04 17:17:00,84.8,67.4,29.96,SE,135,-999.0,-999.0,56,0.00,,BKN250,0.00,VWS V14.01,2013-08-04 21:17:00,
2013-08-04 17:22:00,84.8,67.4,29.96,ENE,68,-999.0,-999.0,56,0.00,,BKN250,0.00,VWS V14.01,2013-08-04 21:22:00,
2013-08-04 17:26:00,84.7,66.2,29.96,ESE,112,-999.0,-999.0,54,0.00,,BKN250,0.00,VWS V14.01,2013-08-04 21:26:00,
2013-08-04 17:32:00,84.8,66.4,29.96,ENE,68,-999.0,-999.0,54,0.00,,BKN250,0.00,VWS V14.01,2013-08-04 21:32:00,
2013-08-04 17:37:00,84.8,66.4,29.96,East,90,-999.0,-999.0,54,0.00,,BKN250,0.00,VWS V14.01,2013-08-04 21:37:00,
2013-08-04 17:42:00,84.8,66.4,29.96,ESE,112,-999.0,-999.0,54,0.00,,BKN250,0.00,VWS V14.01,2013-08-04 21:42:00,
2013-08-04 17:47:00,84.8,67.4,29.96,ENE,68,-999.0,-999.0,56,0.00,,BKN250,0.00,VWS V14.01,2013-08-04 21:47:00,
2013-08-04 17:49:00,84.8,66.4,29.96,NNE,22,-999.0,-999.0,54,0.00,,BKN250,0.00,VWS V14.01,2013-08-04 21:49:00,
2013-08-04 17:53:00,84.8,66.4,29.96,SE,135,-999.0,-999.0,54,0.00,,BKN250,0.00,VWS V14.01,2013-08-04 21:53:00,
2013-08-04 17:59:00,84.2,66.3,29.96,ESE,112,-999.0,-999.0,55,0.00,,BKN250,0.00,VWS V14.01,2013-08-04 21:59:00,
2013-08-04 18:04:00,83.9,66.1,29.96,East,90,-999.0,-999.0,55,0.00,,BKN250,0.00,VWS V14.01,2013-08-04 22:04:00,
2013-08-04 18:09:00,83.9,66.6,29.96,East,90,-999.0,-999.0,56,0.00,,BKN250,0.00,VWS V14.01,2013-08-04 22:09:00,
2013-08-04 18:14:00,83.9,66.1,29.96,East,90,-999.0,-999.0,55,0.00,,BKN250,0.00,VWS V14.01,2013-08-04 22:14:00,
2013-08-04 18:19:00,83.8,66.9,29.96,East,90,-999.0,-999.0,57,0.00,,BKN250,0.00,VWS V14.01,2013-08-04 22:19:00,
2013-08-04 18:24:00,83.4,67.1,29.96,NE,45,-999.0,-999.0,58,0.00,,BKN250,0.00,VWS V14.01,2013-08-04 22:24:00,
2013-08-04 18:29:00,83.3,67.0,29.96,NW,315,-999.0,-999.0,58,0.00,,BKN250,0.00,VWS V14.01,2013-08-04 22:29:00,
2013-08-04 18:34:00,82.9,66.6,29.96,ENE,68,-999.0,-999.0,58,0.00,,BKN250,0.00,VWS V14.01,2013-08-04 22:34:00,
2013-08-04 18:39:00,82.7,67.4,29.96,ENE,68,-999.0,-999.0,60,0.00,,BKN250,0.00,VWS V14.01,2013-08-04 22:39:00,
2013-08-04 18:44:00,82.2,66.4,29.96,ENE,68,-999.0,-999.0,59,0.00,,BKN250,0.00,VWS V14.01,2013-08-04 22:44:00,
2013-08-04 18:49:00,81.8,66.1,29.96,SE,135,-999.0,-999.0,59,0.00,,BKN250,0.00,VWS V14.01,2013-08-04 22:49:00,
2013-08-04 18:54:00,81.6,66.4,29.96,NE,45,-999.0,-999.0,60,0.00,,BKN250,0.00,VWS V14.01,2013-08-04 22:54:00,
2013-08-04 18:58:00,81.5,66.3,29.96,East,90,-999.0,-999.0,60,0.00,,BKN250,0.00,VWS V14.01,2013-08-04 22:58:00,
2013-08-04 19:04:00,81.3,66.6,29.96,ENE,68,-999.0,-999.0,61,0.00,,BKN250,0.00,VWS V14.01,2013-08-04 23:04:00,
2013-08-04 19:08:00,80.9,66.2,29.96,ENE,68,-999.0,-999.0,61,0.00,,BKN250,0.00,VWS V14.01,2013-08-04 23:08:00,
2013-08-04 19:14:00,80.9,67.1,29.96,ENE,68,-999.0,-999.0,63,0.00,,BKN250,0.00,VWS V14.01,2013-08-04 23:14:00,
2013-08-04 19:18:00,80.6,67.3,29.96,ENE,68,-999.0,-999.0,64,0.00,,BKN250,0.00,VWS V14.01,2013-08-04 23:18:00,
2013-08-04 19:23:00,80.4,67.6,29.96,ENE,68,-999.0,-999.0,65,0.00,,BKN250,0.00,VWS V14.01,2013-08-04 23:23:00,
2013-08-04 19:29:00,80.0,67.6,29.96,ENE,68,-999.0,-999.0,66,0.00,,BKN250,0.00,VWS V14.01,2013-08-04 23:29:00,
2013-08-04 19:34:00,79.7,67.8,29.96,ENE,68,-999.0,-999.0,67,0.00,,BKN250,0.00,VWS V14.01,2013-08-04 23:34:00,
2013-08-04 19:39:00,79.5,67.2,29.96,ENE,68,-999.0,-999.0,66,0.00,,BKN250,0.00,VWS V14.01,2013-08-04 23:39:00,
2013-08-04 19:44:00,79.3,67.4,29.97,ENE,68,-999.0,-999.0,67,0.00,,BKN250,0.00,VWS V14.01,2013-08-04 23:44:00,
2013-08-04 19:49:00,79.1,67.6,29.97,ENE,68,-999.0,-999.0,68,0.00,,BKN250,0.00,VWS V14.01,2013-08-04 23:49:00,
2013-08-04 19:54:00,78.4,67.4,29.97,ENE,68,-999.0,-999.0,69,0.00,,BKN250,0.00,VWS V14.01,2013-08-04 23:54:00,
2013-08-04 19:58:00,78.0,67.0,29.97,ENE,68,-999.0,-999.0,69,0.00,,BKN250,0.00,VWS V14.01,2013-08-04 23:58:00,
2013-08-04 20:04:00,77.7,67.6,29.97,ENE,68,-999.0,-999.0,71,0.00,,BKN250,0.00,VWS V14.01,2013-08-05 00:04:00,
2013-08-04 20:08:00,77.1,67.0,29.98,ENE,68,-999.0,-999.0,71,0.00,,BKN250,0.00,VWS V14.01,2013-08-05 00:08:00,
2013-08-04 20:13:00,76.6,66.5,29.98,ENE,68,-999.0,-999.0,71,0.00,,BKN250,0.00,VWS V14.01,2013-08-05 00:13:00,
2013-08-04 20:18:00,76.4,66.7,29.98,ENE,68,-999.0,-999.0,72,0.00,,BKN250,0.00,VWS V14.01,2013-08-05 00:18:00,
2013-08-04 20:23:00,76.2,66.6,29.98,ENE,68,-999.0,-999.0,72,0.00,,BKN250,0.00,VWS V14.01,2013-08-05 00:23:00,
2013-08-04 20:28:00,75.9,67.1,29.98,ENE,68,-999.0,-999.0,74,0.00,,BKN250,0.00,VWS V14.01,2013-08-05 00:28:00,
2013-08-04 20:33:00,75.5,67.1,29.98,ENE,68,-999.0,-999.0,75,0.00,,BKN250,0.00,VWS V14.01,2013-08-05 00:33:00,
2013-08-04 20:38:00,75.2,66.8,29.98,ENE,68,-999.0,-999.0,75,0.00,,BKN250,0.00,VWS V14.01,2013-08-05 00:38:00,
2013-08-04 20:43:00,75.0,66.6,29.99,ENE,68,-999.0,-999.0,75,0.00,,BKN250,0.00,VWS V14.01,2013-08-05 00:43:00,
2013-08-04 20:48:00,74.8,66.8,29.98,ENE,68,-999.0,-999.0,76,0.00,,BKN250,0.00,VWS V14.01,2013-08-05 00:48:00,
2013-08-04 20:53:00,74.4,66.4,29.99,ENE,68,-999.0,-999.0,76,0.00,,BKN250,0.00,VWS V14.01,2013-08-05 00:53:00,
2013-08-04 20:58:00,74.3,66.7,29.99,ENE,68,-999.0,-999.0,77,0.00,,BKN250,0.00,VWS V14.01,2013-08-05 00:58:00,
2013-08-04 21:03:00,74.2,66.5,29.99,ENE,68,-999.0,-999.0,77,0.00,,BKN250,0.00,VWS V14.01,2013-08-05 01:03:00,
2013-08-04 21:08:00,73.8,66.5,29.99,ENE,68,-999.0,-999.0,78,0.00,,BKN250,0.00,VWS V14.01,2013-08-05 01:08:00,
2013-08-04 21:13:00,73.6,66.3,29.99,ENE,68,-999.0,-999.0,78,0.00,,BKN250,0.00,VWS V14.01,2013-08-05 01:13:00,
2013-08-04 21:18:00,73.5,66.6,29.99,ENE,68,-999.0,-999.0,79,0.00,,BKN250,0.00,VWS V14.01,2013-08-05 01:18:00,
2013-08-04 21:23:00,73.3,66.4,29.99,ENE,68,-999.0,-999.0,79,0.00,,BKN250,0.00,VWS V14.01,2013-08-05 01:23:00,
2013-08-04 21:28:00,73.1,66.2,30.00,ENE,68,-999.0,-999.0,79,0.00,,BKN250,0.00,VWS V14.01,2013-08-05 01:28:00,
2013-08-04 21:33:00,73.1,66.5,30.00,ENE,68,-999.0,-999.0,80,0.00,,BKN250,0.00,VWS V14.01,2013-08-05 01:33:00,
2013-08-04 21:38:00,72.7,66.2,30.00,ENE,68,-999.0,-999.0,80,0.00,,BKN250,0.00,VWS V14.01,2013-08-05 01:38:00,
2013-08-04 21:43:00,72.7,66.5,30.00,ENE,68,-999.0,-999.0,81,0.00,,BKN250,0.00,VWS V14.01,2013-08-05 01:43:00,
2013-08-04 21:48:00,72.6,66.4,30.00,ENE,68,-999.0,-999.0,81,0.00,,BKN250,0.00,VWS V14.01,2013-08-05 01:48:00,
2013-08-04 21:53:00,72.4,66.2,30.00,ENE,68,-999.0,-999.0,81,0.00,,BKN250,0.00,VWS V14.01,2013-08-05 01:53:00,
2013-08-04 21:58:00,72.4,66.2,30.01,ENE,68,-999.0,-999.0,81,0.98,,BKN250,0.98,VWS V14.01,2013-08-05 01:58:00,
2013-08-04 22:03:00,72.2,66.0,30.00,ENE,68,-999.0,-999.0,81,0.00,,BKN250,0.00,VWS V14.01,2013-08-05 02:03:00,
2013-08-04 22:08:00,72.0,65.8,30.01,ENE,68,-999.0,-999.0,81,0.00,,BKN250,0.00,VWS V14.01,2013-08-05 02:08:00,
2013-08-04 22:13:00,71.8,65.6,30.01,ENE,68,-999.0,-999.0,81,0.00,,BKN250,0.00,VWS V14.01,2013-08-05 02:13:00,
2013-08-04 22:18:00,71.7,65.5,30.01,ENE,68,-999.0,-999.0,81,0.00,,BKN250,0.00,VWS V14.01,2013-08-05 02:18:00,
2013-08-04 22:23:00,71.7,65.9,30.01,ENE,68,-999.0,-999.0,82,0.00,,BKN250,0.00,VWS V14.01,2013-08-05 02:23:00,
2013-08-04 22:28:00,71.3,65.5,30.01,ENE,68,-999.0,-999.0,82,0.00,,BKN250,0.00,VWS V14.01,2013-08-05 02:28:00,
2013-08-04 22:33:00,71.3,65.5,30.01,ENE,68,-999.0,-999.0,82,0.00,,BKN250,0.00,VWS V14.01,2013-08-05 02:33:00,
2013-08-04 22:38:00,71.1,65.7,30.01,ENE,68,-999.0,-999.0,83,0.00,,BKN250,0.00,VWS V14.01,2013-08-05 02:38:00,
2013-08-04 22:43:00,70.9,65.1,30.01,ENE,68,-999.0,-999.0,82,0.00,,BKN250,0.00,VWS V14.01,2013-08-05 02:43:00,
2013-08-04 22:48:00,70.8,65.4,30.01,ENE,68,-999.0,-999.0,83,0.00,,BKN250,0.00,VWS V14.01,2013-08-05 02:48:00,
2013-08-04 22:53:00,70.6,65.2,30.01,ENE,68,-999.0,-999.0,83,0.00,,BKN250,0.00,VWS V14.01,2013-08-05 02:53:00,
2013-08-04 22:54:00,70.6,65.2,30.01,ENE,68,-999.0,-999.0,83,0.00,,BKN250,0.00,VWS V14.01,2013-08-05 02:54:00,
2013-08-04 22:59:00,70.6,65.2,30.01,ENE,68,-999.0,-999.0,83,0.00,,BKN250,0.00,VWS V14.01,2013-08-05 02:59:00,
2013-08-04 23:04:00,70.4,65.0,30.01,ENE,68,-999.0,-999.0,83,0.00,,BKN250,0.00,VWS V14.01,2013-08-05 03:04:00,
2013-08-04 23:09:00,70.2,65.1,30.01,ENE,68,-999.0,-999.0,84,0.00,,BKN250,0.00,VWS V14.01,2013-08-05 03:09:00,
2013-08-04 23:14:00,70.2,65.1,30.01,ENE,68,-999.0,-999.0,84,0.00,,BKN250,0.00,VWS V14.01,2013-08-05 03:14:00,
2013-08-04 23:19:00,70.0,64.9,30.02,ENE,68,-999.0,-999.0,84,0.00,,BKN250,0.00,VWS V14.01,2013-08-05 03:19:00,
2013-08-04 23:24:00,69.9,64.8,30.02,ENE,68,-999.0,-999.0,84,0.00,,BKN250,0.00,VWS V14.01,2013-08-05 03:24:00,
2013-08-04 23:29:00,69.7,65.0,30.02,ENE,68,-999.0,-999.0,85,0.00,,BKN250,0.00,VWS V14.01,2013-08-05 03:29:00,
2013-08-04 23:33:00,69.5,64.8,30.02,ENE,68,-999.0,-999.0,85,0.00,,BKN250,0.00,VWS V14.01,2013-08-05 03:33:00,
2013-08-04 23:38:00,69.5,65.1,30.02,ENE,68,-999.0,-999.0,86,0.00,,BKN250,0.00,VWS V14.01,2013-08-05 03:38:00,
2013-08-04 23:43:00,69.5,64.8,30.02,ENE,68,-999.0,-999.0,85,0.00,,BKN250,0.00,VWS V14.01,2013-08-05 03:43:00,
2013-08-04 23:48:00,69.3,64.6,30.02,ENE,68,-999.0,-999.0,85,0.00,,BKN250,0.00,VWS V14.01,2013-08-05 03:48:00,
2013-08-04 23:53:00,69.3,64.9,30.02,ENE,68,-999.0,-999.0,86,0.00,,BKN250,0.00,VWS V14.01,2013-08-05 03:53:00,
2013-08-04 23:58:00,69.3,64.9,30.02,ENE,68,-999.0,-999.0,86,0.00,,BKN250,0.00,VWS V14.01,2013-08-05 03:58:00,